Time;durP1;ratioP1;P1;durP2;ratioP2;P2;SDS_P1;SDS_P2;PMS_P1;PMS_P2;Temp;Humidity;BMP_temperature;BMP_pressure;BME280_temperature;BME280_humidity;BME280_pressure;Samples;Min_cycle;Max_cycle;Signal;HPM_P1;HPM_P2
2022/04/30 00:02:06;;;;;;;37.20;24.40;;;;;;;;;;5033535;28;20462;-61
2022/04/30 00:04:36;;;;;;;33.17;21.97;;;;;;;;;;5032128;28;20836;-52
2022/04/30 00:07:03;;;;;;;36.13;24.10;;;;;;;;;;5033630;28;20408;-56
2022/04/30 00:09:29;;;;;;;39.20;25.47;;;;;;;;;;5033385;28;20440;-50
2022/04/30 00:11:55;;;;;;;34.30;24.43;;;;;;;;;;5033239;28;20412;-55
2022/04/30 00:14:22;;;;;;;35.53;23.47;;;;;;;;;;5032039;28;20420;-58
2022/04/30 00:16:48;;;;;;;37.03;23.60;;;;;;;;;;5033311;28;20418;-58
2022/04/30 00:19:15;;;;;;;35.10;24.60;;;;;;;;;;5033444;28;20925;-55
2022/04/30 00:21:41;;;;;;;38.00;25.40;;;;;;;;;;5032992;28;20556;-52
2022/04/30 00:24:07;;;;;;;37.03;24.13;;;;;;;;;;5032978;28;20500;-62
2022/04/30 00:26:33;;;;;;;41.43;24.17;;;;;;;;;;5033104;28;20417;-56
2022/04/30 00:29:00;;;;;;;35.37;24.17;;;;;;;;;;5032964;28;20457;-68
2022/04/30 00:31:26;;;;;;;37.90;25.93;;;;;;;;;;5032999;28;20408;-59
2022/04/30 00:33:52;;;;;;;37.13;23.63;;;;;;;;;;5033071;28;20499;-56
2022/04/30 00:36:18;;;;;;;34.40;22.60;;;;;;;;;;5033224;28;20926;-58
2022/04/30 00:38:44;;;;;;;35.73;20.70;;;;;;;;;;5033035;28;20409;-54
2022/04/30 00:41:11;;;;;;;38.20;21.40;;;;;;;;;;5031599;28;20435;-60
2022/04/30 00:43:46;;;;;;;30.00;19.30;;;;;;;;;;5032803;28;20468;-58
2022/04/30 00:46:13;;;;;;;30.20;19.60;;;;;;;;;;5032778;28;20412;-54
2022/04/30 00:48:39;;;;;;;26.37;18.60;;;;;;;;;;5032667;28;20440;-61
2022/04/30 00:51:09;;;;;;;30.27;18.00;;;;;;;;;;5032636;28;20421;-72
2022/04/30 00:53:35;;;;;;;25.30;17.57;;;;;;;;;;5033736;28;20409;-56
2022/04/30 00:56:02;;;;;;;26.40;17.50;;;;;;;;;;5033772;28;20408;-63
2022/04/30 00:58:29;;;;;;;23.33;17.07;;;;;;;;;;5034264;28;20544;-62
2022/04/30 01:00:56;;;;;;;23.57;17.30;;;;;;;;;;5033775;28;20439;-57
2022/04/30 01:03:22;;;;;;;31.37;17.97;;;;;;;;;;5034392;28;20462;-59
2022/04/30 01:05:49;;;;;;;28.43;19.40;;;;;;;;;;5033587;28;20417;-66
2022/04/30 01:08:15;;;;;;;28.80;19.87;;;;;;;;;;5033811;28;20413;-58
2022/04/30 01:10:41;;;;;;;30.60;20.13;;;;;;;;;;5033216;28;20416;-59
2022/04/30 01:13:08;;;;;;;31.60;20.20;;;;;;;;;;5032465;28;20968;-51
2022/04/30 01:15:35;;;;;;;31.73;21.17;;;;;;;;;;5032405;28;20470;-58
2022/04/30 01:18:01;;;;;;;29.77;21.10;;;;;;;;;;5032370;28;20412;-61
2022/04/30 01:20:28;;;;;;;40.17;23.27;;;;;;;;;;5032424;28;20444;-58
2022/04/30 01:23:02;;;;;;;30.37;20.67;;;;;;;;;;5032143;28;20492;-57
2022/04/30 01:25:30;;;;;;;25.17;19.60;;;;;;;;;;5032264;28;20468;-67
2022/04/30 01:27:56;;;;;;;27.47;18.27;;;;;;;;;;5032438;28;20405;-50
2022/04/30 01:30:23;;;;;;;28.13;18.80;;;;;;;;;;5032325;28;20424;-61
2022/04/30 01:38:18;;;;;;;26.07;17.70;;;;;;;;;;5032463;28;20924;-60
2022/04/30 01:40:44;;;;;;;30.43;16.60;;;;;;;;;;5032163;28;20814;-56
2022/04/30 01:43:10;;;;;;;21.90;14.87;;;;;;;;;;5030994;28;20417;-53
2022/04/30 01:45:36;;;;;;;26.53;14.00;;;;;;;;;;5032121;28;20416;-51
2022/04/30 01:48:03;;;;;;;20.70;15.13;;;;;;;;;;5032091;28;20412;-52
2022/04/30 01:50:29;;;;;;;27.63;13.97;;;;;;;;;;5031014;28;20762;-53
2022/04/30 01:52:55;;;;;;;22.63;13.37;;;;;;;;;;5032147;28;20404;-58
2022/04/30 01:55:21;;;;;;;19.67;12.70;;;;;;;;;;5030793;28;20446;-54
2022/04/30 01:57:47;;;;;;;17.90;13.07;;;;;;;;;;5032237;28;20496;-53
2022/04/30 02:00:14;;;;;;;22.37;13.23;;;;;;;;;;5032028;28;20808;-56
2022/04/30 02:02:44;;;;;;;22.20;13.10;;;;;;;;;;5032094;28;20181;-51
2022/04/30 02:05:13;;;;;;;20.03;13.57;;;;;;;;;;5031891;28;20500;-51
2022/04/30 02:07:45;;;;;;;17.77;13.07;;;;;;;;;;5032053;28;20901;-50
2022/04/30 02:10:14;;;;;;;15.17;11.70;;;;;;;;;;5030806;28;20495;-57
2022/04/30 02:12:41;;;;;;;23.23;13.93;;;;;;;;;;5035589;28;20411;-57
2022/04/30 02:15:08;;;;;;;14.23;10.83;;;;;;;;;;5035446;28;20499;-57
2022/04/30 02:17:36;;;;;;;15.47;11.93;;;;;;;;;;5035463;28;20418;-58
2022/04/30 02:20:18;;;;;;;21.27;11.30;;;;;;;;;;5035570;28;20754;-55
2022/04/30 02:22:45;;;;;;;19.00;11.50;;;;;;;;;;5035397;28;20452;-60
2022/04/30 02:25:12;;;;;;;22.47;12.53;;;;;;;;;;5035171;28;20472;-62
2022/04/30 02:27:39;;;;;;;20.33;12.20;;;;;;;;;;5035290;28;20419;-55
2022/04/30 02:30:09;;;;;;;19.40;12.40;;;;;;;;;;5035202;28;20415;-63
2022/04/30 02:32:42;;;;;;;31.03;12.53;;;;;;;;;;5035173;28;20409;-50
2022/04/30 02:35:09;;;;;;;15.03;11.77;;;;;;;;;;5035067;28;20964;-49
2022/04/30 02:37:35;;;;;;;20.47;11.00;;;;;;;;;;5034923;28;20420;-60
2022/04/30 02:40:01;;;;;;;19.23;11.73;;;;;;;;;;5035104;28;20412;-52
2022/04/30 02:42:28;;;;;;;17.90;11.63;;;;;;;;;;5034945;28;20420;-58
2022/04/30 02:44:54;;;;;;;17.70;12.03;;;;;;;;;;5034940;28;20514;-50
2022/04/30 02:47:20;;;;;;;18.50;11.23;;;;;;;;;;5034837;28;20401;-55
2022/04/30 02:49:49;;;;;;;18.43;12.20;;;;;;;;;;5034890;28;20507;-71
2022/04/30 02:52:15;;;;;;;13.87;9.80;;;;;;;;;;5034966;28;20420;-58
2022/04/30 02:54:41;;;;;;;13.20;10.77;;;;;;;;;;5034713;28;20450;-70
2022/04/30 02:57:07;;;;;;;16.93;11.50;;;;;;;;;;5034734;28;20416;-53
2022/04/30 03:02:18;;;;;;;17.40;9.70;;;;;;;;;;5034752;28;20451;-49
2022/04/30 03:04:44;;;;;;;17.43;10.50;;;;;;;;;;5034505;28;20475;-54
2022/04/30 03:07:11;;;;;;;15.30;9.80;;;;;;;;;;5034402;28;20404;-50
2022/04/30 03:09:38;;;;;;;21.93;10.50;;;;;;;;;;5034484;28;20423;-53
2022/04/30 03:12:04;;;;;;;15.37;11.00;;;;;;;;;;5034495;28;20409;-61
2022/04/30 03:14:30;;;;;;;11.87;9.20;;;;;;;;;;5034304;28;20413;-53
2022/04/30 03:22:26;;;;;;;11.97;9.83;;;;;;;;;;5033279;28;20446;-51
2022/04/30 03:24:52;;;;;;;16.50;10.73;;;;;;;;;;5032789;28;20567;-56
2022/04/30 03:27:18;;;;;;;13.10;10.27;;;;;;;;;;5034380;28;20930;-62
2022/04/30 03:29:46;;;;;;;13.60;9.60;;;;;;;;;;5034430;28;20904;-56
2022/04/30 03:32:12;;;;;;;18.60;10.60;;;;;;;;;;5032856;28;20781;-53
2022/04/30 03:34:38;;;;;;;11.73;10.00;;;;;;;;;;5034049;28;20505;-57
2022/04/30 03:37:04;;;;;;;15.73;10.40;;;;;;;;;;5032712;28;20416;-57
2022/04/30 03:39:30;;;;;;;21.03;10.90;;;;;;;;;;5033967;28;20450;-53
2022/04/30 03:41:56;;;;;;;17.23;9.20;;;;;;;;;;5033917;28;20504;-55
2022/04/30 03:44:23;;;;;;;16.70;9.80;;;;;;;;;;5032520;28;20884;-51
2022/04/30 03:46:50;;;;;;;15.03;9.77;;;;;;;;;;5033893;28;20478;-52
2022/04/30 03:49:18;;;;;;;18.40;10.40;;;;;;;;;;5034216;28;20872;-54
2022/04/30 03:51:44;;;;;;;17.53;10.13;;;;;;;;;;5032508;28;20448;-51
2022/04/30 03:54:10;;;;;;;12.83;9.50;;;;;;;;;;5032270;28;20420;-57
2022/04/30 03:56:36;;;;;;;12.93;10.20;;;;;;;;;;5033543;28;20408;-62
2022/04/30 03:59:02;;;;;;;18.43;9.53;;;;;;;;;;5033560;28;20439;-66
2022/04/30 04:01:29;;;;;;;15.50;9.70;;;;;;;;;;5033334;28;20411;-60
2022/04/30 04:03:55;;;;;;;16.80;10.50;;;;;;;;;;5032149;28;20475;-58
2022/04/30 04:06:22;;;;;;;14.83;9.30;;;;;;;;;;5031932;28;20428;-52
2022/04/30 04:08:51;;;;;;;12.80;9.00;;;;;;;;;;5032146;28;20424;-57
2022/04/30 04:11:17;;;;;;;16.53;10.17;;;;;;;;;;5033464;28;20519;-52
2022/04/30 04:19:12;;;;;;;16.87;9.97;;;;;;;;;;5033385;28;20404;-60
2022/04/30 04:21:39;;;;;;;13.87;9.63;;;;;;;;;;5032988;28;20968;-53
2022/04/30 04:26:50;;;;;;;22.40;9.30;;;;;;;;;;5032889;28;20458;-51
2022/04/30 04:29:19;;;;;;;15.60;10.40;;;;;;;;;;5033152;28;20475;-62
2022/04/30 04:31:45;;;;;;;15.27;10.63;;;;;;;;;;5033036;28;20951;-53
2022/04/30 04:34:11;;;;;;;18.30;9.73;;;;;;;;;;5032386;28;20409;-56
2022/04/30 04:36:38;;;;;;;16.10;10.33;;;;;;;;;;5032838;28;20439;-62
2022/04/30 04:39:14;;;;;;;16.70;10.60;;;;;;;;;;5032792;28;20432;-49
2022/04/30 04:41:43;;;;;;;16.77;10.63;;;;;;;;;;5031540;28;20408;-50
2022/04/30 04:44:09;;;;;;;13.70;10.27;;;;;;;;;;5032608;28;20460;-64
2022/04/30 04:46:36;;;;;;;19.13;11.27;;;;;;;;;;5031376;28;20569;-51
2022/04/30 04:49:02;;;;;;;16.43;10.47;;;;;;;;;;5032577;28;20804;-53
2022/04/30 04:51:28;;;;;;;15.20;10.30;;;;;;;;;;5032414;28;20412;-52
2022/04/30 04:53:55;;;;;;;14.10;10.37;;;;;;;;;;5032590;28;20404;-55
2022/04/30 04:56:21;;;;;;;16.80;9.57;;;;;;;;;;5031192;28;20431;-65
2022/04/30 04:58:47;;;;;;;17.33;11.20;;;;;;;;;;5032689;28;20400;-52
2022/04/30 05:01:13;;;;;;;16.30;11.53;;;;;;;;;;5032487;28;20409;-50
2022/04/30 05:03:42;;;;;;;12.57;9.30;;;;;;;;;;5030986;28;20483;-57
2022/04/30 05:06:08;;;;;;;15.10;10.20;;;;;;;;;;5032383;28;20478;-55
2022/04/30 05:08:34;;;;;;;18.63;10.40;;;;;;;;;;5032327;28;20435;-52
2022/04/30 05:11:03;;;;;;;18.53;11.87;;;;;;;;;;5032305;28;20444;-53
2022/04/30 05:13:29;;;;;;;17.10;11.13;;;;;;;;;;5031123;28;20495;-57
2022/04/30 05:15:55;;;;;;;20.67;11.20;;;;;;;;;;5032290;28;20421;-58
2022/04/30 05:18:21;;;;;;;22.23;11.53;;;;;;;;;;5032444;28;20416;-54
2022/04/30 05:20:47;;;;;;;17.50;11.03;;;;;;;;;;5032548;28;20478;-50
2022/04/30 05:23:16;;;;;;;17.37;11.43;;;;;;;;;;5031023;28;20467;-55
2022/04/30 05:25:47;;;;;;;14.33;10.60;;;;;;;;;;5031629;28;20436;-51
2022/04/30 05:28:13;;;;;;;17.50;11.10;;;;;;;;;;5032739;28;20454;-57
2022/04/30 05:30:40;;;;;;;13.93;10.60;;;;;;;;;;5032967;28;20408;-64
2022/04/30 05:33:06;;;;;;;16.50;10.50;;;;;;;;;;5032865;28;20400;-52
2022/04/30 05:35:32;;;;;;;15.60;10.90;;;;;;;;;;5032855;28;20420;-60
2022/04/30 05:37:59;;;;;;;14.90;10.10;;;;;;;;;;5032886;28;20924;-54
2022/04/30 05:40:25;;;;;;;16.17;10.97;;;;;;;;;;5031179;28;20430;-50
2022/04/30 05:42:53;;;;;;;14.70;11.03;;;;;;;;;;5032605;28;20909;-49
2022/04/30 05:45:20;;;;;;;17.50;10.70;;;;;;;;;;5032913;28;20471;-51
2022/04/30 05:47:46;;;;;;;17.07;11.20;;;;;;;;;;5036649;28;20491;-56
2022/04/30 05:50:12;;;;;;;16.10;11.40;;;;;;;;;;5036449;28;20411;-52
2022/04/30 05:52:38;;;;;;;14.13;10.73;;;;;;;;;;5036360;28;20396;-56
2022/04/30 05:55:05;;;;;;;18.67;11.50;;;;;;;;;;5035147;28;20425;-59
2022/04/30 05:57:32;;;;;;;18.93;11.03;;;;;;;;;;5036176;28;20408;-60
2022/04/30 05:59:58;;;;;;;14.60;10.27;;;;;;;;;;5036276;28;20459;-51
2022/04/30 06:02:24;;;;;;;16.67;10.87;;;;;;;;;;5036136;28;20401;-60
2022/04/30 06:04:50;;;;;;;15.07;10.40;;;;;;;;;;5036047;28;20470;-58
2022/04/30 06:07:17;;;;;;;16.00;11.27;;;;;;;;;;5035125;28;20569;-53
2022/04/30 06:09:46;;;;;;;17.77;10.17;;;;;;;;;;5036408;28;20408;-59
2022/04/30 06:12:12;;;;;;;14.57;10.53;;;;;;;;;;5035809;28;20488;-53
2022/04/30 06:14:38;;;;;;;16.13;10.60;;;;;;;;;;5035760;28;20739;-52
2022/04/30 06:17:05;;;;;;;14.30;9.50;;;;;;;;;;5034274;28;20925;-49
2022/04/30 06:19:33;;;;;;;18.53;10.47;;;;;;;;;;5035378;28;20423;-50
2022/04/30 06:21:59;;;;;;;21.20;9.80;;;;;;;;;;5035169;28;20952;-51
2022/04/30 06:24:25;;;;;;;13.23;9.70;;;;;;;;;;5035328;28;20471;-60
2022/04/30 06:26:51;;;;;;;14.10;10.53;;;;;;;;;;5034024;28;20490;-53
2022/04/30 06:29:18;;;;;;;15.53;9.43;;;;;;;;;;5035130;28;20401;-52
2022/04/30 06:31:44;;;;;;;17.03;11.10;;;;;;;;;;5035351;28;20508;-56
2022/04/30 06:34:10;;;;;;;15.70;10.00;;;;;;;;;;5035112;28;20901;-52
2022/04/30 06:36:36;;;;;;;14.47;10.50;;;;;;;;;;5034948;28;20515;-67
2022/04/30 06:39:02;;;;;;;14.77;11.00;;;;;;;;;;5035057;28;20483;-62
2022/04/30 06:41:28;;;;;;;16.87;10.73;;;;;;;;;;5034729;28;20401;-66
2022/04/30 06:43:54;;;;;;;16.60;10.83;;;;;;;;;;5034705;28;20969;-49
2022/04/30 06:46:20;;;;;;;13.50;10.73;;;;;;;;;;5035063;28;20809;-51
2022/04/30 06:48:46;;;;;;;18.37;10.60;;;;;;;;;;5034972;28;20446;-61
2022/04/30 06:51:13;;;;;;;18.50;10.53;;;;;;;;;;5034746;28;20503;-61
2022/04/30 06:59:12;;;;;;;20.93;14.00;;;;;;;;;;5033620;28;20467;-63
2022/04/30 07:01:49;;;;;;;17.27;12.13;;;;;;;;;;5034762;28;20416;-64
2022/04/30 07:04:17;;;;;;;19.97;11.80;;;;;;;;;;5033191;28;20525;-55
2022/04/30 07:06:43;;;;;;;15.83;10.33;;;;;;;;;;5033952;28;20893;-49
2022/04/30 07:09:09;;;;;;;25.63;10.70;;;;;;;;;;5034480;28;20418;-62
2022/04/30 07:11:35;;;;;;;14.23;11.17;;;;;;;;;;5032975;28;20979;-63
2022/04/30 07:14:01;;;;;;;16.53;12.30;;;;;;;;;;5033560;28;20497;-64
2022/04/30 07:16:27;;;;;;;12.83;10.67;;;;;;;;;;5033628;28;20424;-57
2022/04/30 07:18:53;;;;;;;18.30;13.47;;;;;;;;;;5034399;28;20417;-62
2022/04/30 07:21:19;;;;;;;16.53;11.30;;;;;;;;;;5033998;28;20420;-62
2022/04/30 07:23:45;;;;;;;12.93;10.90;;;;;;;;;;5034611;28;20521;-54
2022/04/30 07:26:11;;;;;;;17.67;11.23;;;;;;;;;;5034272;28;20416;-52
2022/04/30 07:28:40;;;;;;;28.87;11.20;;;;;;;;;;5032787;28;20423;-50
2022/04/30 07:31:08;;;;;;;15.63;10.60;;;;;;;;;;5034204;28;20428;-50
2022/04/30 07:33:34;;;;;;;13.77;10.80;;;;;;;;;;5034103;28;20785;-52
2022/04/30 07:36:00;;;;;;;19.57;11.67;;;;;;;;;;5034086;28;20520;-55
2022/04/30 07:38:26;;;;;;;20.67;10.60;;;;;;;;;;5034125;28;20419;-53
2022/04/30 07:40:53;;;;;;;21.40;10.77;;;;;;;;;;5033913;28;20444;-52
2022/04/30 07:43:19;;;;;;;13.43;10.80;;;;;;;;;;5033836;28;20478;-51
2022/04/30 07:45:45;;;;;;;14.73;9.73;;;;;;;;;;5033866;28;20957;-53
2022/04/30 07:48:11;;;;;;;12.23;10.90;;;;;;;;;;5033762;28;20478;-51
2022/04/30 07:50:37;;;;;;;17.07;13.20;;;;;;;;;;5033733;28;20474;-50
2022/04/30 07:53:07;;;;;;;19.03;13.13;;;;;;;;;;5033714;28;20440;-50
2022/04/30 07:55:39;;;;;;;15.13;11.47;;;;;;;;;;5033405;28;20409;-52
2022/04/30 07:58:05;;;;;;;16.70;10.80;;;;;;;;;;5033299;28;20412;-53
2022/04/30 08:00:31;;;;;;;16.73;11.93;;;;;;;;;;5033481;28;20408;-52
2022/04/30 08:02:57;;;;;;;13.70;11.33;;;;;;;;;;5033434;28;20960;-52
2022/04/30 08:05:24;;;;;;;19.27;12.77;;;;;;;;;;5033041;28;20626;-50
2022/04/30 08:07:50;;;;;;;16.70;11.23;;;;;;;;;;5032999;28;20415;-52
2022/04/30 08:10:16;;;;;;;14.43;10.77;;;;;;;;;;5033129;28;20408;-53
2022/04/30 08:12:42;;;;;;;13.33;10.60;;;;;;;;;;5033248;28;20916;-66
2022/04/30 08:15:08;;;;;;;19.20;12.13;;;;;;;;;;5033028;28;20416;-68
2022/04/30 08:17:34;;;;;;;13.57;10.07;;;;;;;;;;5031879;28;20420;-67
2022/04/30 08:20:01;;;;;;;17.13;11.10;;;;;;;;;;5033123;28;20419;-60
2022/04/30 08:22:27;;;;;;;17.80;12.93;;;;;;;;;;5033008;28;21062;-62
2022/04/30 08:24:53;;;;;;;14.80;10.30;;;;;;;;;;5033001;28;20471;-56
2022/04/30 08:27:21;;;;;;;13.73;11.07;;;;;;;;;;5032911;28;20781;-66
2022/04/30 08:29:47;;;;;;;14.03;10.10;;;;;;;;;;5033161;28;20420;-71
2022/04/30 08:32:15;;;;;;;15.53;10.37;;;;;;;;;;5033049;28;20413;-57
2022/04/30 08:34:41;;;;;;;17.13;10.40;;;;;;;;;;5032865;28;20823;-67
2022/04/30 08:37:07;;;;;;;14.90;10.20;;;;;;;;;;5032894;28;20504;-69
2022/04/30 08:39:33;;;;;;;16.30;11.10;;;;;;;;;;5032758;28;20510;-63
2022/04/30 08:41:59;;;;;;;14.73;10.83;;;;;;;;;;5031357;28;20428;-68
2022/04/30 08:44:25;;;;;;;14.90;10.47;;;;;;;;;;5032802;28;20464;-69
2022/04/30 08:46:51;;;;;;;16.10;11.63;;;;;;;;;;5031556;28;20428;-67
2022/04/30 08:49:17;;;;;;;13.77;10.70;;;;;;;;;;5032900;28;20416;-71
2022/04/30 08:51:43;;;;;;;19.37;13.13;;;;;;;;;;5032785;28;20408;-70
2022/04/30 08:54:09;;;;;;;13.33;10.80;;;;;;;;;;5032537;28;20412;-61
2022/04/30 08:56:36;;;;;;;14.50;10.17;;;;;;;;;;5032721;28;20412;-61
2022/04/30 08:59:04;;;;;;;11.40;9.97;;;;;;;;;;5032655;28;20495;-65
2022/04/30 09:01:31;;;;;;;14.80;10.63;;;;;;;;;;5032719;28;20405;-66
2022/04/30 09:03:57;;;;;;;19.77;11.23;;;;;;;;;;5032517;28;20463;-55
2022/04/30 09:06:25;;;;;;;19.27;13.17;;;;;;;;;;5032649;28;20416;-64
2022/04/30 09:08:52;;;;;;;22.30;9.90;;;;;;;;;;5032489;28;20401;-55
2022/04/30 09:11:18;;;;;;;17.67;12.00;;;;;;;;;;5032631;28;20421;-58
2022/04/30 09:13:46;;;;;;;17.93;14.13;;;;;;;;;;5032662;28;20496;-52
2022/04/30 09:16:22;;;;;;;16.40;12.87;;;;;;;;;;5032219;28;20416;-51
2022/04/30 09:18:49;;;;;;;13.40;10.50;;;;;;;;;;5032605;28;20422;-50
2022/04/30 09:21:17;;;;;;;12.93;10.47;;;;;;;;;;5034493;28;20413;-57
2022/04/30 09:23:43;;;;;;;16.90;10.70;;;;;;;;;;5036431;28;20482;-54
2022/04/30 09:26:09;;;;;;;12.73;10.90;;;;;;;;;;5036415;28;21505;-51
2022/04/30 09:28:36;;;;;;;11.27;10.17;;;;;;;;;;5036449;28;20412;-55
2022/04/30 09:31:06;;;;;;;13.37;10.27;;;;;;;;;;5034981;28;20405;-52
2022/04/30 09:33:32;;;;;;;11.27;10.17;;;;;;;;;;5036358;28;20430;-53
2022/04/30 09:38:50;;;;;;;12.13;10.17;;;;;;;;;;5036617;28;20451;-62
2022/04/30 09:41:21;;;;;;;16.13;10.80;;;;;;;;;;5036485;28;20417;-67
2022/04/30 09:43:48;;;;;;;12.73;10.00;;;;;;;;;;5036397;28;20785;-58
2022/04/30 09:46:15;;;;;;;13.93;10.07;;;;;;;;;;5033888;28;20500;-58
2022/04/30 09:54:11;;;;;;;13.10;9.67;;;;;;;;;;5035915;28;20515;-54
2022/04/30 09:56:44;;;;;;;16.13;11.20;;;;;;;;;;5035953;28;20459;-52
2022/04/30 09:59:11;;;;;;;14.63;10.23;;;;;;;;;;5035915;28;20457;-55
2022/04/30 10:01:39;;;;;;;14.03;9.80;;;;;;;;;;5036047;28;20408;-53
2022/04/30 10:04:09;;;;;;;14.30;11.27;;;;;;;;;;5035797;28;20499;-55
2022/04/30 10:06:36;;;;;;;15.60;11.20;;;;;;;;;;5034211;28;20780;-51
2022/04/30 10:09:07;;;;;;;17.20;10.73;;;;;;;;;;5035800;28;20396;-63
2022/04/30 10:11:40;;;;;;;11.30;10.10;;;;;;;;;;5035531;28;20419;-56
2022/04/30 10:14:24;;;;;;;11.63;10.03;;;;;;;;;;5034284;28;20929;-61
2022/04/30 10:19:35;;;;;;;19.63;13.10;;;;;;;;;;5035749;28;20413;-52
2022/04/30 10:22:15;;;;;;;15.30;10.07;;;;;;;;;;5035429;28;20556;-54
2022/04/30 10:24:44;;;;;;;13.50;10.87;;;;;;;;;;5035391;28;20478;-57
2022/04/30 10:27:12;;;;;;;11.83;10.17;;;;;;;;;;5035166;28;20415;-54
2022/04/30 10:29:39;;;;;;;20.80;10.73;;;;;;;;;;5035223;28;20432;-57
2022/04/30 10:32:05;;;;;;;16.13;10.53;;;;;;;;;;5034825;28;20751;-62
2022/04/30 10:34:32;;;;;;;14.07;10.37;;;;;;;;;;5035350;28;20415;-66
2022/04/30 10:37:02;;;;;;;12.87;10.03;;;;;;;;;;5035093;28;20440;-61
2022/04/30 10:39:28;;;;;;;22.10;11.60;;;;;;;;;;5032890;28;20835;-56
2022/04/30 10:41:54;;;;;;;13.53;10.60;;;;;;;;;;5035154;28;20440;-52
2022/04/30 10:44:30;;;;;;;14.33;10.20;;;;;;;;;;5035070;28;20821;-61
2022/04/30 10:47:07;;;;;;;16.43;11.00;;;;;;;;;;5033859;28;20432;-51
2022/04/30 10:49:33;;;;;;;13.23;11.07;;;;;;;;;;5034909;28;20401;-52
2022/04/30 10:51:59;;;;;;;18.13;11.50;;;;;;;;;;5035023;28;20420;-54
2022/04/30 10:54:38;;;;;;;15.03;11.00;;;;;;;;;;5034788;28;20403;-57
2022/04/30 10:57:07;;;;;;;17.20;12.20;;;;;;;;;;5034961;28;20413;-59
2022/04/30 10:59:33;;;;;;;16.27;10.83;;;;;;;;;;5034933;28;20413;-58
2022/04/30 11:02:01;;;;;;;11.80;9.97;;;;;;;;;;5033624;28;20471;-55
2022/04/30 11:04:30;;;;;;;16.23;11.30;;;;;;;;;;5033577;28;20809;-57
2022/04/30 11:06:57;;;;;;;13.73;10.53;;;;;;;;;;5034747;28;20940;-53
2022/04/30 11:09:23;;;;;;;13.80;10.73;;;;;;;;;;5034898;28;20413;-53
2022/04/30 11:11:51;;;;;;;13.40;10.73;;;;;;;;;;5034621;28;20408;-57
2022/04/30 11:14:19;;;;;;;12.13;10.50;;;;;;;;;;5034366;28;20420;-64
2022/04/30 11:16:45;;;;;;;14.73;11.10;;;;;;;;;;5034790;28;20400;-55
2022/04/30 11:19:14;;;;;;;11.60;10.33;;;;;;;;;;5034429;28;20917;-54
2022/04/30 11:21:42;;;;;;;15.53;11.37;;;;;;;;;;5034003;28;20452;-53
2022/04/30 11:24:08;;;;;;;13.20;11.10;;;;;;;;;;5034107;28;20452;-55
2022/04/30 11:26:38;;;;;;;13.63;11.17;;;;;;;;;;5034126;28;20466;-60
2022/04/30 11:29:14;;;;;;;16.13;11.93;;;;;;;;;;5034244;28;20970;-54
2022/04/30 11:31:42;;;;;;;19.37;10.47;;;;;;;;;;5034062;28;20904;-55
2022/04/30 11:34:12;;;;;;;13.73;10.67;;;;;;;;;;5034063;28;20413;-52
2022/04/30 11:36:41;;;;;;;22.53;11.23;;;;;;;;;;5033978;28;20451;-56
2022/04/30 11:39:07;;;;;;;13.50;10.17;;;;;;;;;;5032521;28;20424;-51
2022/04/30 11:41:46;;;;;;;20.43;12.27;;;;;;;;;;5033888;28;20769;-52
2022/04/30 11:44:13;;;;;;;14.63;11.30;;;;;;;;;;5032847;28;20508;-54
2022/04/30 11:46:42;;;;;;;15.33;12.27;;;;;;;;;;5033815;28;20439;-51
2022/04/30 11:49:13;;;;;;;13.67;10.37;;;;;;;;;;5032418;28;20452;-54
2022/04/30 11:51:39;;;;;;;18.23;11.53;;;;;;;;;;5033832;28;20412;-56
2022/04/30 11:54:09;;;;;;;24.40;11.23;;;;;;;;;;5033648;28;20992;-53
2022/04/30 11:56:35;;;;;;;15.17;12.40;;;;;;;;;;5033701;28;20409;-52
2022/04/30 11:59:01;;;;;;;17.53;11.80;;;;;;;;;;5033555;28;20415;-55
2022/04/30 12:01:30;;;;;;;22.50;11.70;;;;;;;;;;5033545;28;20405;-55
2022/04/30 12:03:58;;;;;;;18.33;11.43;;;;;;;;;;5033649;28;20456;-51
2022/04/30 12:06:25;;;;;;;16.90;12.30;;;;;;;;;;5033383;28;20444;-59
2022/04/30 12:08:51;;;;;;;14.13;11.47;;;;;;;;;;5032527;28;20778;-61
2022/04/30 12:11:17;;;;;;;15.43;11.80;;;;;;;;;;5033443;28;20409;-54
2022/04/30 12:13:43;;;;;;;17.20;11.57;;;;;;;;;;5033185;28;20510;-55
2022/04/30 12:16:09;;;;;;;11.40;10.17;;;;;;;;;;5033224;28;20501;-53
2022/04/30 12:26:54;;;;;;;12.97;10.90;;;;;;;;;;5033546;28;20801;-60
2022/04/30 12:29:21;;;;;;;18.67;11.30;;;;;;;;;;5033178;28;20419;-53
2022/04/30 12:31:47;;;;;;;14.53;10.23;;;;;;;;;;5031975;28;20846;-54
2022/04/30 12:34:34;;;;;;;12.40;11.17;;;;;;;;;;5033003;28;20409;-51
2022/04/30 12:37:01;;;;;;;15.10;10.57;;;;;;;;;;5033107;28;20431;-52
2022/04/30 12:39:27;;;;;;;12.80;10.67;;;;;;;;;;5033074;28;20454;-55
2022/04/30 12:41:55;;;;;;;11.50;10.37;;;;;;;;;;5031560;28;20436;-58
2022/04/30 12:44:22;;;;;;;15.00;11.43;;;;;;;;;;5032723;28;20500;-52
2022/04/30 12:46:49;;;;;;;13.30;9.80;;;;;;;;;;5033075;28;20408;-58
2022/04/30 12:49:15;;;;;;;11.70;9.93;;;;;;;;;;5033098;28;20404;-62
2022/04/30 12:51:41;;;;;;;13.03;10.53;;;;;;;;;;5032771;28;20909;-53
2022/04/30 12:54:12;;;;;;;11.90;9.97;;;;;;;;;;5032407;28;20408;-59
2022/04/30 12:56:39;;;;;;;14.97;11.80;;;;;;;;;;5031350;28;20785;-61
2022/04/30 12:59:05;;;;;;;14.93;11.00;;;;;;;;;;5032700;28;20535;-58
2022/04/30 13:01:33;;;;;;;13.33;9.80;;;;;;;;;;5031236;28;20404;-54
2022/04/30 13:03:59;;;;;;;17.20;11.30;;;;;;;;;;5031245;28;20558;-56
2022/04/30 13:06:25;;;;;;;11.80;10.20;;;;;;;;;;5032522;28;20416;-54
2022/04/30 13:14:20;;;;;;;12.00;10.47;;;;;;;;;;5032576;28;20451;-58
2022/04/30 13:16:48;;;;;;;13.43;10.60;;;;;;;;;;5031353;28;20459;-53
2022/04/30 13:19:15;;;;;;;11.70;8.83;;;;;;;;;;5032822;28;20173;-52
2022/04/30 13:21:41;;;;;;;13.60;10.10;;;;;;;;;;5030923;28;20471;-61
2022/04/30 13:24:08;;;;;;;12.23;8.40;;;;;;;;;;5032378;28;20444;-61
2022/04/30 13:26:34;;;;;;;12.73;11.50;;;;;;;;;;5032502;28;20769;-59
2022/04/30 13:29:00;;;;;;;11.00;10.00;;;;;;;;;;5032107;28;20404;-58
2022/04/30 13:31:26;;;;;;;11.60;10.43;;;;;;;;;;5030990;28;21006;-55
2022/04/30 13:33:52;;;;;;;12.10;10.13;;;;;;;;;;5032298;28;20396;-55
2022/04/30 13:36:20;;;;;;;11.10;10.00;;;;;;;;;;5032525;28;20412;-62
2022/04/30 13:38:46;;;;;;;11.30;9.90;;;;;;;;;;5032295;28;20404;-54
2022/04/30 13:41:12;;;;;;;10.33;9.40;;;;;;;;;;5032279;28;20465;-64
2022/04/30 13:43:38;;;;;;;21.43;11.17;;;;;;;;;;5032187;28;20561;-62
2022/04/30 13:46:04;;;;;;;16.33;9.90;;;;;;;;;;5032244;28;20417;-60
2022/04/30 13:48:31;;;;;;;11.10;9.30;;;;;;;;;;5032221;28;20405;-54
2022/04/30 13:50:57;;;;;;;9.83;8.83;;;;;;;;;;5032215;28;20448;-56
2022/04/30 13:53:23;;;;;;;9.17;8.37;;;;;;;;;;5032132;28;20495;-56
2022/04/30 13:55:49;;;;;;;13.63;9.23;;;;;;;;;;5032152;28;20412;-54
2022/04/30 13:58:15;;;;;;;9.67;8.77;;;;;;;;;;5032341;28;20772;-64
2022/04/30 14:00:41;;;;;;;10.63;8.27;;;;;;;;;;5032091;28;20465;-55
2022/04/30 14:03:11;;;;;;;9.70;8.70;;;;;;;;;;5032219;28;20415;-58
2022/04/30 14:05:37;;;;;;;13.63;9.83;;;;;;;;;;5032240;28;20468;-52
2022/04/30 14:08:12;;;;;;;10.60;8.63;;;;;;;;;;5035201;28;20506;-54
2022/04/30 14:10:41;;;;;;;11.77;9.13;;;;;;;;;;5035763;28;20407;-54
2022/04/30 14:15:58;;;;;;;15.20;8.47;;;;;;;;;;5035766;28;20416;-53
2022/04/30 14:18:24;;;;;;;11.67;8.93;;;;;;;;;;5035536;28;20404;-54
2022/04/30 14:20:54;;;;;;;11.30;8.63;;;;;;;;;;5035655;28;20408;-54
2022/04/30 14:23:24;;;;;;;13.50;9.20;;;;;;;;;;5033871;28;20463;-51
2022/04/30 14:26:01;;;;;;;10.67;9.63;;;;;;;;;;5035479;28;20482;-57
2022/04/30 14:28:31;;;;;;;15.90;9.10;;;;;;;;;;5035412;28;20411;-50
2022/04/30 14:31:01;;;;;;;10.40;8.27;;;;;;;;;;5034100;28;20506;-57
2022/04/30 14:33:33;;;;;;;9.67;8.77;;;;;;;;;;5035439;28;20413;-57
2022/04/30 14:36:00;;;;;;;9.73;8.43;;;;;;;;;;5035212;28;20424;-56
2022/04/30 14:38:26;;;;;;;16.70;8.73;;;;;;;;;;5035448;28;20404;-58
2022/04/30 14:40:52;;;;;;;11.30;9.27;;;;;;;;;;5035326;28;20842;-56
2022/04/30 14:43:19;;;;;;;12.20;9.27;;;;;;;;;;5035449;28;20810;-56
2022/04/30 14:46:00;;;;;;;10.43;8.90;;;;;;;;;;5035275;28;20471;-55
2022/04/30 14:48:26;;;;;;;10.53;9.23;;;;;;;;;;5035051;28;20917;-53
2022/04/30 14:50:53;;;;;;;10.43;9.10;;;;;;;;;;5033901;28;20462;-55
2022/04/30 14:53:31;;;;;;;12.37;8.87;;;;;;;;;;5036455;28;20401;-59
2022/04/30 14:56:03;;;;;;;10.00;8.90;;;;;;;;;;5035436;28;20490;-53
2022/04/30 14:58:33;;;;;;;10.37;8.80;;;;;;;;;;5033756;28;20470;-55
2022/04/30 15:01:05;;;;;;;8.20;7.40;;;;;;;;;;5034818;28;20413;-58
2022/04/30 15:03:43;;;;;;;12.90;9.20;;;;;;;;;;5034955;28;20427;-53
2022/04/30 15:06:10;;;;;;;9.07;8.17;;;;;;;;;;5035006;28;20841;-52
2022/04/30 15:08:40;;;;;;;12.37;8.23;;;;;;;;;;5033474;28;20475;-54
2022/04/30 15:11:11;;;;;;;10.07;7.43;;;;;;;;;;5034888;28;20436;-55
2022/04/30 15:13:40;;;;;;;8.40;7.70;;;;;;;;;;5034676;28;20420;-59
2022/04/30 15:16:18;;;;;;;11.10;8.57;;;;;;;;;;5033458;28;20415;-51
2022/04/30 15:18:47;;;;;;;9.53;7.67;;;;;;;;;;5033533;28;20435;-58